Terminal Aerodrome Forecast
Issued by NWS

Home | Current Version | Previous Version | Text Only | Print | Product List | Glossary On
Versions: 1 2 3 4 5 6 7 8 9 10 11 12 13 14 15 16
000
FTUS43 KUNR 060520
TAFGCC
TAF
KGCC 060520Z 0606/0706 35006KT P6SM BKN010 OVC035
     FM061500 35009KT P6SM BKN020
     FM061700 34010KT P6SM SCT025=

USA.gov is the U.S. government's official web portal to all federal, state and local government web resources and services.